sensor_id;sensor_type;location;lat;lon;timestamp;temperature;humidity
11136;DHT22;5622;50.840;4.948;2023-06-14T00:01:14;19.10;75.50
11136;DHT22;5622;50.840;4.948;2023-06-14T00:03:41;19.10;75.50
11136;DHT22;5622;50.840;4.948;2023-06-14T00:06:08;19.10;75.60
11136;DHT22;5622;50.840;4.948;2023-06-14T00:08:35;19.00;75.70
11136;DHT22;5622;50.840;4.948;2023-06-14T00:11:04;19.00;75.70
11136;DHT22;5622;50.840;4.948;2023-06-14T00:13:31;19.00;75.70
11136;DHT22;5622;50.840;4.948;2023-06-14T00:15:58;18.90;75.90
11136;DHT22;5622;50.840;4.948;2023-06-14T00:18:25;18.90;76.20
11136;DHT22;5622;50.840;4.948;2023-06-14T00:20:56;18.80;76.30
11136;DHT22;5622;50.840;4.948;2023-06-14T00:23:24;18.80;76.80
11136;DHT22;5622;50.840;4.948;2023-06-14T00:25:51;18.80;77.10
11136;DHT22;5622;50.840;4.948;2023-06-14T00:28:19;18.70;77.20
11136;DHT22;5622;50.840;4.948;2023-06-14T00:30:46;18.70;77.40
11136;DHT22;5622;50.840;4.948;2023-06-14T00:33:14;18.70;77.40
11136;DHT22;5622;50.840;4.948;2023-06-14T00:35:41;18.60;77.50
11136;DHT22;5622;50.840;4.948;2023-06-14T00:38:08;18.60;77.60
11136;DHT22;5622;50.840;4.948;2023-06-14T00:40:35;18.60;77.60
11136;DHT22;5622;50.840;4.948;2023-06-14T00:43:02;18.50;77.70
11136;DHT22;5622;50.840;4.948;2023-06-14T00:45:30;18.50;77.90
11136;DHT22;5622;50.840;4.948;2023-06-14T00:48:01;18.50;78.10
11136;DHT22;5622;50.840;4.948;2023-06-14T00:50:30;18.50;78.40
11136;DHT22;5622;50.840;4.948;2023-06-14T00:52:58;18.40;78.60
11136;DHT22;5622;50.840;4.948;2023-06-14T00:55:26;18.40;78.50
11136;DHT22;5622;50.840;4.948;2023-06-14T00:57:54;18.40;78.90
11136;DHT22;5622;50.840;4.948;2023-06-14T01:00:21;18.40;79.40
11136;DHT22;5622;50.840;4.948;2023-06-14T01:02:50;18.40;79.70
11136;DHT22;5622;50.840;4.948;2023-06-14T01:05:19;18.30;80.00
11136;DHT22;5622;50.840;4.948;2023-06-14T01:07:57;18.30;80.20
11136;DHT22;5622;50.840;4.948;2023-06-14T01:10:35;18.30;80.50
11136;DHT22;5622;50.840;4.948;2023-06-14T01:13:10;18.30;80.70
11136;DHT22;5622;50.840;4.948;2023-06-14T01:15:39;18.30;81.50
11136;DHT22;5622;50.840;4.948;2023-06-14T01:18:09;18.20;80.70
11136;DHT22;5622;50.840;4.948;2023-06-14T01:20:43;18.20;80.70
11136;DHT22;5622;50.840;4.948;2023-06-14T01:23:16;18.20;80.70
11136;DHT22;5622;50.840;4.948;2023-06-14T01:25:43;18.10;81.70
11136;DHT22;5622;50.840;4.948;2023-06-14T01:28:11;18.10;81.50
11136;DHT22;5622;50.840;4.948;2023-06-14T01:30:41;18.10;81.50
11136;DHT22;5622;50.840;4.948;2023-06-14T01:33:11;18.10;81.80
11136;DHT22;5622;50.840;4.948;2023-06-14T01:35:38;18.10;82.10
11136;DHT22;5622;50.840;4.948;2023-06-14T01:38:06;18.00;82.20
11136;DHT22;5622;50.840;4.948;2023-06-14T01:40:36;18.00;82.40
11136;DHT22;5622;50.840;4.948;2023-06-14T01:43:05;18.00;82.60
11136;DHT22;5622;50.840;4.948;2023-06-14T01:45:33;18.00;82.70
11136;DHT22;5622;50.840;4.948;2023-06-14T01:48:01;18.00;82.50
11136;DHT22;5622;50.840;4.948;2023-06-14T01:50:29;17.90;82.40
11136;DHT22;5622;50.840;4.948;2023-06-14T01:52:56;17.90;82.20
11136;DHT22;5622;50.840;4.948;2023-06-14T01:55:24;17.90;82.10
11136;DHT22;5622;50.840;4.948;2023-06-14T01:57:54;17.90;82.20
11136;DHT22;5622;50.840;4.948;2023-06-14T02:00:22;17.80;82.10
11136;DHT22;5622;50.840;4.948;2023-06-14T02:02:49;17.90;82.10
11136;DHT22;5622;50.840;4.948;2023-06-14T02:05:16;17.90;81.70
11136;DHT22;5622;50.840;4.948;2023-06-14T02:07:44;17.80;82.60
11136;DHT22;5622;50.840;4.948;2023-06-14T02:10:12;17.80;82.60
11136;DHT22;5622;50.840;4.948;2023-06-14T02:12:40;17.80;82.30
11136;DHT22;5622;50.840;4.948;2023-06-14T02:15:09;17.90;82.50
11136;DHT22;5622;50.840;4.948;2023-06-14T02:17:42;17.80;82.90
11136;DHT22;5622;50.840;4.948;2023-06-14T02:20:10;17.80;83.30
11136;DHT22;5622;50.840;4.948;2023-06-14T02:22:37;17.80;82.60
11136;DHT22;5622;50.840;4.948;2023-06-14T02:25:05;17.80;82.30
11136;DHT22;5622;50.840;4.948;2023-06-14T02:27:33;17.80;81.70
11136;DHT22;5622;50.840;4.948;2023-06-14T02:30:00;17.90;83.10
11136;DHT22;5622;50.840;4.948;2023-06-14T02:32:28;17.80;83.50
11136;DHT22;5622;50.840;4.948;2023-06-14T02:34:56;17.80;82.90
11136;DHT22;5622;50.840;4.948;2023-06-14T02:37:23;17.80;82.70
11136;DHT22;5622;50.840;4.948;2023-06-14T02:39:50;17.80;83.50
11136;DHT22;5622;50.840;4.948;2023-06-14T02:42:17;17.80;83.40
11136;DHT22;5622;50.840;4.948;2023-06-14T02:44:44;17.80;82.00
11136;DHT22;5622;50.840;4.948;2023-06-14T02:47:16;17.80;81.50
11136;DHT22;5622;50.840;4.948;2023-06-14T02:49:45;17.80;81.40
11136;DHT22;5622;50.840;4.948;2023-06-14T02:52:13;17.80;81.70
11136;DHT22;5622;50.840;4.948;2023-06-14T02:54:40;17.80;82.30
11136;DHT22;5622;50.840;4.948;2023-06-14T02:57:07;17.90;81.40
11136;DHT22;5622;50.840;4.948;2023-06-14T02:59:36;17.90;80.30
11136;DHT22;5622;50.840;4.948;2023-06-14T03:02:03;17.80;80.20
11136;DHT22;5622;50.840;4.948;2023-06-14T03:04:30;17.80;81.40
11136;DHT22;5622;50.840;4.948;2023-06-14T03:07:02;17.80;80.90
11136;DHT22;5622;50.840;4.948;2023-06-14T03:09:35;17.90;80.40
11136;DHT22;5622;50.840;4.948;2023-06-14T03:12:03;17.80;80.20
11136;DHT22;5622;50.840;4.948;2023-06-14T03:14:30;17.90;80.20
11136;DHT22;5622;50.840;4.948;2023-06-14T03:16:57;17.80;80.20
11136;DHT22;5622;50.840;4.948;2023-06-14T03:19:26;17.80;80.30
11136;DHT22;5622;50.840;4.948;2023-06-14T03:21:53;17.80;80.20
11136;DHT22;5622;50.840;4.948;2023-06-14T03:24:24;17.80;80.20
11136;DHT22;5622;50.840;4.948;2023-06-14T03:26:52;17.80;81.90
11136;DHT22;5622;50.840;4.948;2023-06-14T03:29:20;17.70;82.10
11136;DHT22;5622;50.840;4.948;2023-06-14T03:31:57;17.70;82.10
11136;DHT22;5622;50.840;4.948;2023-06-14T03:34:25;17.60;83.10
11136;DHT22;5622;50.840;4.948;2023-06-14T03:36:52;17.60;83.60
11136;DHT22;5622;50.840;4.948;2023-06-14T03:39:19;17.60;83.50
11136;DHT22;5622;50.840;4.948;2023-06-14T03:41:48;17.50;83.90
11136;DHT22;5622;50.840;4.948;2023-06-14T03:44:16;17.50;84.40
11136;DHT22;5622;50.840;4.948;2023-06-14T03:46:44;17.40;84.90
11136;DHT22;5622;50.840;4.948;2023-06-14T03:49:11;17.40;85.10
11136;DHT22;5622;50.840;4.948;2023-06-14T03:51:39;17.30;84.50
11136;DHT22;5622;50.840;4.948;2023-06-14T03:54:07;17.30;84.30
11136;DHT22;5622;50.840;4.948;2023-06-14T03:56:34;17.30;85.00
11136;DHT22;5622;50.840;4.948;2023-06-14T03:59:03;17.30;85.60
11136;DHT22;5622;50.840;4.948;2023-06-14T04:01:30;17.30;85.50
11136;DHT22;5622;50.840;4.948;2023-06-14T04:03:59;17.30;85.70
11136;DHT22;5622;50.840;4.948;2023-06-14T04:06:26;17.30;86.60
11136;DHT22;5622;50.840;4.948;2023-06-14T04:08:58;17.20;86.80
11136;DHT22;5622;50.840;4.948;2023-06-14T04:11:27;17.30;86.70
11136;DHT22;5622;50.840;4.948;2023-06-14T04:13:55;17.30;86.80
11136;DHT22;5622;50.840;4.948;2023-06-14T04:16:23;17.30;87.20
11136;DHT22;5622;50.840;4.948;2023-06-14T04:18:51;17.30;86.90
11136;DHT22;5622;50.840;4.948;2023-06-14T04:21:19;17.30;86.90
11136;DHT22;5622;50.840;4.948;2023-06-14T04:23:46;17.30;86.60
11136;DHT22;5622;50.840;4.948;2023-06-14T04:26:13;17.30;86.30
11136;DHT22;5622;50.840;4.948;2023-06-14T04:28:41;17.40;86.60
11136;DHT22;5622;50.840;4.948;2023-06-14T04:31:10;17.40;87.30
11136;DHT22;5622;50.840;4.948;2023-06-14T04:33:39;17.40;87.40
11136;DHT22;5622;50.840;4.948;2023-06-14T04:36:09;17.40;87.30
11136;DHT22;5622;50.840;4.948;2023-06-14T04:38:37;17.40;88.30
11136;DHT22;5622;50.840;4.948;2023-06-14T04:41:04;17.50;87.90
11136;DHT22;5622;50.840;4.948;2023-06-14T04:43:31;17.50;87.80
11136;DHT22;5622;50.840;4.948;2023-06-14T04:46:04;17.50;88.30
11136;DHT22;5622;50.840;4.948;2023-06-14T04:48:35;17.50;88.40
11136;DHT22;5622;50.840;4.948;2023-06-14T04:51:04;17.50;88.40
11136;DHT22;5622;50.840;4.948;2023-06-14T04:53:31;17.50;88.80
11136;DHT22;5622;50.840;4.948;2023-06-14T04:55:58;17.60;89.40
11136;DHT22;5622;50.840;4.948;2023-06-14T04:58:26;17.60;89.70
11136;DHT22;5622;50.840;4.948;2023-06-14T05:00:54;17.60;89.50
11136;DHT22;5622;50.840;4.948;2023-06-14T05:03:21;17.60;90.10
11136;DHT22;5622;50.840;4.948;2023-06-14T05:05:49;17.60;90.20
11136;DHT22;5622;50.840;4.948;2023-06-14T05:08:20;17.60;90.10
11136;DHT22;5622;50.840;4.948;2023-06-14T05:10:48;17.70;90.30
11136;DHT22;5622;50.840;4.948;2023-06-14T05:13:15;17.70;90.10
11136;DHT22;5622;50.840;4.948;2023-06-14T05:15:42;17.70;89.80
11136;DHT22;5622;50.840;4.948;2023-06-14T05:18:10;17.70;89.60
11136;DHT22;5622;50.840;4.948;2023-06-14T05:20:38;17.80;90.00
11136;DHT22;5622;50.840;4.948;2023-06-14T05:23:08;17.80;90.10
11136;DHT22;5622;50.840;4.948;2023-06-14T05:25:42;17.80;90.50
11136;DHT22;5622;50.840;4.948;2023-06-14T05:28:10;17.90;90.30
11136;DHT22;5622;50.840;4.948;2023-06-14T05:30:37;17.90;90.50
11136;DHT22;5622;50.840;4.948;2023-06-14T05:33:05;17.90;91.00
11136;DHT22;5622;50.840;4.948;2023-06-14T05:35:32;17.90;91.00
11136;DHT22;5622;50.840;4.948;2023-06-14T05:37:59;17.90;91.00
11136;DHT22;5622;50.840;4.948;2023-06-14T05:40:26;18.00;91.70
11136;DHT22;5622;50.840;4.948;2023-06-14T05:42:55;18.00;92.50
11136;DHT22;5622;50.840;4.948;2023-06-14T05:45:22;17.90;93.00
11136;DHT22;5622;50.840;4.948;2023-06-14T05:47:49;17.90;93.30
11136;DHT22;5622;50.840;4.948;2023-06-14T05:50:16;17.90;93.70
11136;DHT22;5622;50.840;4.948;2023-06-14T05:52:43;17.90;94.30
11136;DHT22;5622;50.840;4.948;2023-06-14T05:55:11;17.90;94.80
11136;DHT22;5622;50.840;4.948;2023-06-14T05:57:38;17.80;95.20
11136;DHT22;5622;50.840;4.948;2023-06-14T06:00:08;17.90;95.60
11136;DHT22;5622;50.840;4.948;2023-06-14T06:02:40;17.90;95.70
11136;DHT22;5622;50.840;4.948;2023-06-14T06:05:08;17.90;95.80
11136;DHT22;5622;50.840;4.948;2023-06-14T06:07:35;18.00;96.40
11136;DHT22;5622;50.840;4.948;2023-06-14T06:10:03;18.00;96.90
11136;DHT22;5622;50.840;4.948;2023-06-14T06:12:31;18.00;97.40
11136;DHT22;5622;50.840;4.948;2023-06-14T06:14:58;18.10;98.00
11136;DHT22;5622;50.840;4.948;2023-06-14T06:17:27;18.10;97.90
11136;DHT22;5622;50.840;4.948;2023-06-14T06:19:54;18.20;96.30
11136;DHT22;5622;50.840;4.948;2023-06-14T06:22:21;18.20;95.20
11136;DHT22;5622;50.840;4.948;2023-06-14T06:24:48;18.30;94.90
11136;DHT22;5622;50.840;4.948;2023-06-14T06:27:15;18.30;94.80
11136;DHT22;5622;50.840;4.948;2023-06-14T06:29:44;18.40;95.30
11136;DHT22;5622;50.840;4.948;2023-06-14T06:32:11;18.50;96.00
11136;DHT22;5622;50.840;4.948;2023-06-14T06:34:41;18.60;96.70
11136;DHT22;5622;50.840;4.948;2023-06-14T06:37:08;18.60;97.10
11136;DHT22;5622;50.840;4.948;2023-06-14T06:39:41;18.70;97.40
11136;DHT22;5622;50.840;4.948;2023-06-14T06:42:09;18.70;97.60
11136;DHT22;5622;50.840;4.948;2023-06-14T06:44:36;18.80;97.50
11136;DHT22;5622;50.840;4.948;2023-06-14T06:47:04;18.90;97.80
11136;DHT22;5622;50.840;4.948;2023-06-14T06:49:31;18.90;98.10
11136;DHT22;5622;50.840;4.948;2023-06-14T06:52:03;19.00;98.30
11136;DHT22;5622;50.840;4.948;2023-06-14T06:54:31;19.00;97.90
11136;DHT22;5622;50.840;4.948;2023-06-14T06:56:58;19.10;97.40
11136;DHT22;5622;50.840;4.948;2023-06-14T06:59:25;19.20;97.40
11136;DHT22;5622;50.840;4.948;2023-06-14T07:01:52;19.20;97.30
11136;DHT22;5622;50.840;4.948;2023-06-14T07:04:20;19.30;96.80
11136;DHT22;5622;50.840;4.948;2023-06-14T07:06:47;19.40;97.30
11136;DHT22;5622;50.840;4.948;2023-06-14T07:09:15;19.50;95.20
11136;DHT22;5622;50.840;4.948;2023-06-14T07:11:43;19.70;96.20
11136;DHT22;5622;50.840;4.948;2023-06-14T07:14:11;19.80;96.40
11136;DHT22;5622;50.840;4.948;2023-06-14T07:16:38;20.00;96.60
11136;DHT22;5622;50.840;4.948;2023-06-14T07:19:06;20.20;96.10
11136;DHT22;5622;50.840;4.948;2023-06-14T07:21:34;20.40;95.70
11136;DHT22;5622;50.840;4.948;2023-06-14T07:24:03;20.70;95.90
11136;DHT22;5622;50.840;4.948;2023-06-14T07:26:33;20.90;94.90
11136;DHT22;5622;50.840;4.948;2023-06-14T07:29:00;21.10;94.80
11136;DHT22;5622;50.840;4.948;2023-06-14T07:31:28;21.40;94.20
11136;DHT22;5622;50.840;4.948;2023-06-14T07:33:55;21.60;93.50
11136;DHT22;5622;50.840;4.948;2023-06-14T07:36:22;21.80;92.70
11136;DHT22;5622;50.840;4.948;2023-06-14T07:38:49;22.10;91.70
11136;DHT22;5622;50.840;4.948;2023-06-14T07:41:16;22.30;91.80
11136;DHT22;5622;50.840;4.948;2023-06-14T07:43:45;22.70;91.00
11136;DHT22;5622;50.840;4.948;2023-06-14T07:46:12;22.90;86.80
11136;DHT22;5622;50.840;4.948;2023-06-14T07:48:39;23.10;85.80
11136;DHT22;5622;50.840;4.948;2023-06-14T07:51:06;23.20;86.20
11136;DHT22;5622;50.840;4.948;2023-06-14T07:53:33;23.40;85.80
11136;DHT22;5622;50.840;4.948;2023-06-14T07:56:00;23.60;85.90
11136;DHT22;5622;50.840;4.948;2023-06-14T07:58:28;23.90;85.20
11136;DHT22;5622;50.840;4.948;2023-06-14T08:00:57;24.10;84.40
11136;DHT22;5622;50.840;4.948;2023-06-14T08:03:25;24.30;85.00
11136;DHT22;5622;50.840;4.948;2023-06-14T08:05:52;24.40;83.10
11136;DHT22;5622;50.840;4.948;2023-06-14T08:08:19;24.60;82.50
11136;DHT22;5622;50.840;4.948;2023-06-14T08:10:47;24.80;80.00
11136;DHT22;5622;50.840;4.948;2023-06-14T08:13:14;24.90;79.00
11136;DHT22;5622;50.840;4.948;2023-06-14T08:15:41;25.10;78.60
11136;DHT22;5622;50.840;4.948;2023-06-14T08:18:09;25.30;76.50
11136;DHT22;5622;50.840;4.948;2023-06-14T08:20:36;25.40;74.50
11136;DHT22;5622;50.840;4.948;2023-06-14T08:23:04;25.60;75.50
11136;DHT22;5622;50.840;4.948;2023-06-14T08:25:31;25.70;73.30
11136;DHT22;5622;50.840;4.948;2023-06-14T08:27:58;25.70;73.20
11136;DHT22;5622;50.840;4.948;2023-06-14T08:30:26;25.80;74.60
11136;DHT22;5622;50.840;4.948;2023-06-14T08:32:53;25.90;73.90
11136;DHT22;5622;50.840;4.948;2023-06-14T08:35:23;26.00;72.10
11136;DHT22;5622;50.840;4.948;2023-06-14T08:37:50;26.20;70.20
11136;DHT22;5622;50.840;4.948;2023-06-14T08:40:19;26.30;69.70
11136;DHT22;5622;50.840;4.948;2023-06-14T08:42:50;26.40;71.50
11136;DHT22;5622;50.840;4.948;2023-06-14T08:45:18;26.60;71.70
11136;DHT22;5622;50.840;4.948;2023-06-14T08:47:45;26.70;66.90
11136;DHT22;5622;50.840;4.948;2023-06-14T08:50:20;26.80;69.30
11136;DHT22;5622;50.840;4.948;2023-06-14T08:52:54;26.90;66.10
11136;DHT22;5622;50.840;4.948;2023-06-14T08:55:23;27.00;66.40
11136;DHT22;5622;50.840;4.948;2023-06-14T08:57:54;27.20;67.20
11136;DHT22;5622;50.840;4.948;2023-06-14T09:00:23;27.30;63.00
11136;DHT22;5622;50.840;4.948;2023-06-14T09:02:51;27.50;62.20
11136;DHT22;5622;50.840;4.948;2023-06-14T09:05:22;27.50;61.30
11136;DHT22;5622;50.840;4.948;2023-06-14T09:07:51;27.60;58.80
11136;DHT22;5622;50.840;4.948;2023-06-14T09:10:18;27.70;61.80
11136;DHT22;5622;50.840;4.948;2023-06-14T09:12:47;27.80;62.50
11136;DHT22;5622;50.840;4.948;2023-06-14T09:15:14;27.90;60.40
11136;DHT22;5622;50.840;4.948;2023-06-14T09:17:43;28.00;61.80
11136;DHT22;5622;50.840;4.948;2023-06-14T09:20:10;28.10;60.10
11136;DHT22;5622;50.840;4.948;2023-06-14T09:22:39;28.20;58.40
11136;DHT22;5622;50.840;4.948;2023-06-14T09:25:09;28.30;58.50
11136;DHT22;5622;50.840;4.948;2023-06-14T09:27:37;28.40;56.50
11136;DHT22;5622;50.840;4.948;2023-06-14T09:30:08;28.50;59.10
11136;DHT22;5622;50.840;4.948;2023-06-14T09:32:37;28.60;57.50
11136;DHT22;5622;50.840;4.948;2023-06-14T09:35:06;28.70;57.70
11136;DHT22;5622;50.840;4.948;2023-06-14T09:37:34;28.80;57.10
11136;DHT22;5622;50.840;4.948;2023-06-14T09:40:04;28.90;57.80
11136;DHT22;5622;50.840;4.948;2023-06-14T09:42:34;29.10;56.80
11136;DHT22;5622;50.840;4.948;2023-06-14T09:45:03;29.10;53.50
11136;DHT22;5622;50.840;4.948;2023-06-14T09:47:30;29.10;54.40
11136;DHT22;5622;50.840;4.948;2023-06-14T09:49:57;29.20;54.20
11136;DHT22;5622;50.840;4.948;2023-06-14T09:52:26;29.10;52.80
11136;DHT22;5622;50.840;4.948;2023-06-14T09:54:55;29.10;54.00
11136;DHT22;5622;50.840;4.948;2023-06-14T09:57:23;29.20;53.20
11136;DHT22;5622;50.840;4.948;2023-06-14T09:59:57;29.20;53.40
11136;DHT22;5622;50.840;4.948;2023-06-14T10:02:26;29.30;53.40
11136;DHT22;5622;50.840;4.948;2023-06-14T10:05:01;29.40;54.40
11136;DHT22;5622;50.840;4.948;2023-06-14T10:07:35;29.50;54.50
11136;DHT22;5622;50.840;4.948;2023-06-14T10:10:02;29.50;51.50
11136;DHT22;5622;50.840;4.948;2023-06-14T10:12:30;29.50;51.30
11136;DHT22;5622;50.840;4.948;2023-06-14T10:14:59;29.60;53.00
11136;DHT22;5622;50.840;4.948;2023-06-14T10:17:34;29.60;53.50
11136;DHT22;5622;50.840;4.948;2023-06-14T10:20:21;29.70;50.80
11136;DHT22;5622;50.840;4.948;2023-06-14T10:22:58;29.70;48.40
11136;DHT22;5622;50.840;4.948;2023-06-14T10:25:27;29.50;48.00
11136;DHT22;5622;50.840;4.948;2023-06-14T10:28:15;29.40;48.20
11136;DHT22;5622;50.840;4.948;2023-06-14T10:31:04;29.20;48.00
11136;DHT22;5622;50.840;4.948;2023-06-14T10:33:32;29.00;47.50
11136;DHT22;5622;50.840;4.948;2023-06-14T10:36:10;28.70;46.30
11136;DHT22;5622;50.840;4.948;2023-06-14T10:38:37;28.40;46.60
11136;DHT22;5622;50.840;4.948;2023-06-14T10:41:05;28.00;46.60
11136;DHT22;5622;50.840;4.948;2023-06-14T10:43:33;27.90;46.10
11136;DHT22;5622;50.840;4.948;2023-06-14T10:46:18;27.80;48.10
11136;DHT22;5622;50.840;4.948;2023-06-14T10:48:48;27.60;47.90
11136;DHT22;5622;50.840;4.948;2023-06-14T10:51:17;27.50;49.20
11136;DHT22;5622;50.840;4.948;2023-06-14T10:53:47;27.50;48.90
11136;DHT22;5622;50.840;4.948;2023-06-14T10:56:26;27.40;49.90
11136;DHT22;5622;50.840;4.948;2023-06-14T10:58:54;27.80;51.80
11136;DHT22;5622;50.840;4.948;2023-06-14T11:01:35;27.90;48.30
11136;DHT22;5622;50.840;4.948;2023-06-14T11:04:12;28.10;50.20
11136;DHT22;5622;50.840;4.948;2023-06-14T11:06:47;28.20;51.10
11136;DHT22;5622;50.840;4.948;2023-06-14T11:12:12;28.60;45.50
11136;DHT22;5622;50.840;4.948;2023-06-14T11:14:40;28.60;47.50
11136;DHT22;5622;50.840;4.948;2023-06-14T11:17:08;28.60;45.90
11136;DHT22;5622;50.840;4.948;2023-06-14T11:19:36;28.50;46.60
11136;DHT22;5622;50.840;4.948;2023-06-14T11:22:03;28.30;45.10
11136;DHT22;5622;50.840;4.948;2023-06-14T11:24:32;28.10;46.90
11136;DHT22;5622;50.840;4.948;2023-06-14T11:27:00;27.90;46.10
11136;DHT22;5622;50.840;4.948;2023-06-14T11:29:29;27.70;46.70
11136;DHT22;5622;50.840;4.948;2023-06-14T11:31:57;27.50;47.90
11136;DHT22;5622;50.840;4.948;2023-06-14T11:34:26;27.30;47.70
11136;DHT22;5622;50.840;4.948;2023-06-14T11:36:54;27.10;46.90
11136;DHT22;5622;50.840;4.948;2023-06-14T11:39:24;27.00;47.00
11136;DHT22;5622;50.840;4.948;2023-06-14T11:41:53;26.90;46.10
11136;DHT22;5622;50.840;4.948;2023-06-14T11:44:21;26.70;46.90
11136;DHT22;5622;50.840;4.948;2023-06-14T11:46:49;26.70;47.70
11136;DHT22;5622;50.840;4.948;2023-06-14T11:49:16;26.60;49.50
11136;DHT22;5622;50.840;4.948;2023-06-14T11:51:48;26.60;49.60
11136;DHT22;5622;50.840;4.948;2023-06-14T11:54:16;26.60;48.30
11136;DHT22;5622;50.840;4.948;2023-06-14T11:56:44;26.50;49.20
11136;DHT22;5622;50.840;4.948;2023-06-14T11:59:13;26.50;47.20
11136;DHT22;5622;50.840;4.948;2023-06-14T12:01:43;26.40;46.90
11136;DHT22;5622;50.840;4.948;2023-06-14T12:04:13;26.30;46.50
11136;DHT22;5622;50.840;4.948;2023-06-14T12:06:40;26.20;46.50
11136;DHT22;5622;50.840;4.948;2023-06-14T12:09:10;26.20;45.70
11136;DHT22;5622;50.840;4.948;2023-06-14T12:11:43;26.20;46.20
11136;DHT22;5622;50.840;4.948;2023-06-14T12:14:10;26.20;45.20
11136;DHT22;5622;50.840;4.948;2023-06-14T12:16:39;26.10;44.50
11136;DHT22;5622;50.840;4.948;2023-06-14T12:19:12;26.10;44.40
11136;DHT22;5622;50.840;4.948;2023-06-14T12:21:41;26.00;44.10
11136;DHT22;5622;50.840;4.948;2023-06-14T12:24:12;26.00;45.30
11136;DHT22;5622;50.840;4.948;2023-06-14T12:26:40;26.00;45.60
11136;DHT22;5622;50.840;4.948;2023-06-14T12:29:08;26.00;45.50
11136;DHT22;5622;50.840;4.948;2023-06-14T12:31:35;25.90;44.80
11136;DHT22;5622;50.840;4.948;2023-06-14T12:34:03;26.00;44.10
11136;DHT22;5622;50.840;4.948;2023-06-14T12:36:33;25.90;43.00
11136;DHT22;5622;50.840;4.948;2023-06-14T12:39:07;25.90;41.40
11136;DHT22;5622;50.840;4.948;2023-06-14T12:41:37;25.90;42.40
11136;DHT22;5622;50.840;4.948;2023-06-14T12:44:07;25.90;43.30
11136;DHT22;5622;50.840;4.948;2023-06-14T12:46:36;25.80;43.80
11136;DHT22;5622;50.840;4.948;2023-06-14T12:49:05;26.00;42.80
11136;DHT22;5622;50.840;4.948;2023-06-14T12:51:33;25.90;43.00
11136;DHT22;5622;50.840;4.948;2023-06-14T12:54:04;24.90;42.20
11136;DHT22;5622;50.840;4.948;2023-06-14T12:56:32;25.80;43.40
11136;DHT22;5622;50.840;4.948;2023-06-14T12:59:03;25.80;43.50
11136;DHT22;5622;50.840;4.948;2023-06-14T13:01:31;25.70;43.50
11136;DHT22;5622;50.840;4.948;2023-06-14T13:04:02;25.70;42.60
11136;DHT22;5622;50.840;4.948;2023-06-14T13:06:31;25.50;42.50
11136;DHT22;5622;50.840;4.948;2023-06-14T13:09:00;25.70;43.70
11136;DHT22;5622;50.840;4.948;2023-06-14T13:11:29;25.70;44.00
11136;DHT22;5622;50.840;4.948;2023-06-14T13:13:57;25.70;44.30
11136;DHT22;5622;50.840;4.948;2023-06-14T13:16:26;25.70;42.90
11136;DHT22;5622;50.840;4.948;2023-06-14T13:18:54;25.60;42.70
11136;DHT22;5622;50.840;4.948;2023-06-14T13:21:22;25.70;42.10
11136;DHT22;5622;50.840;4.948;2023-06-14T13:23:52;25.70;43.60
11136;DHT22;5622;50.840;4.948;2023-06-14T13:26:19;26.30;41.90
11136;DHT22;5622;50.840;4.948;2023-06-14T13:28:47;25.60;42.60
11136;DHT22;5622;50.840;4.948;2023-06-14T13:31:15;25.60;42.40
11136;DHT22;5622;50.840;4.948;2023-06-14T13:33:45;25.60;42.90
11136;DHT22;5622;50.840;4.948;2023-06-14T13:36:14;25.60;43.90
11136;DHT22;5622;50.840;4.948;2023-06-14T13:38:42;25.40;44.50
11136;DHT22;5622;50.840;4.948;2023-06-14T13:41:10;25.50;43.70
11136;DHT22;5622;50.840;4.948;2023-06-14T13:43:37;25.50;43.50
11136;DHT22;5622;50.840;4.948;2023-06-14T13:46:08;25.50;44.40
11136;DHT22;5622;50.840;4.948;2023-06-14T13:48:36;25.60;43.80
11136;DHT22;5622;50.840;4.948;2023-06-14T13:51:05;25.50;44.40
11136;DHT22;5622;50.840;4.948;2023-06-14T13:53:35;25.40;43.50
11136;DHT22;5622;50.840;4.948;2023-06-14T13:56:04;25.60;44.20
11136;DHT22;5622;50.840;4.948;2023-06-14T13:58:32;25.40;43.70
11136;DHT22;5622;50.840;4.948;2023-06-14T14:01:00;25.50;44.00
11136;DHT22;5622;50.840;4.948;2023-06-14T14:03:29;25.60;44.90
11136;DHT22;5622;50.840;4.948;2023-06-14T14:06:01;25.60;45.10
11136;DHT22;5622;50.840;4.948;2023-06-14T14:08:35;25.60;45.00
11136;DHT22;5622;50.840;4.948;2023-06-14T14:11:14;25.60;45.50
11136;DHT22;5622;50.840;4.948;2023-06-14T14:13:42;25.50;45.10
11136;DHT22;5622;50.840;4.948;2023-06-14T14:16:10;25.50;45.10
11136;DHT22;5622;50.840;4.948;2023-06-14T14:18:39;25.50;43.20
11136;DHT22;5622;50.840;4.948;2023-06-14T14:21:11;25.50;44.70
11136;DHT22;5622;50.840;4.948;2023-06-14T14:23:46;25.50;44.30
11136;DHT22;5622;50.840;4.948;2023-06-14T14:26:21;25.00;44.20
11136;DHT22;5622;50.840;4.948;2023-06-14T14:28:51;25.50;43.80
11136;DHT22;5622;50.840;4.948;2023-06-14T14:31:23;25.30;43.40
11136;DHT22;5622;50.840;4.948;2023-06-14T14:33:51;25.50;44.20
11136;DHT22;5622;50.840;4.948;2023-06-14T14:36:27;25.50;45.30
11136;DHT22;5622;50.840;4.948;2023-06-14T14:39:00;25.30;45.60
11136;DHT22;5622;50.840;4.948;2023-06-14T14:41:35;25.50;45.50
11136;DHT22;5622;50.840;4.948;2023-06-14T14:44:06;25.60;44.70
11136;DHT22;5622;50.840;4.948;2023-06-14T14:46:42;25.60;44.30
11136;DHT22;5622;50.840;4.948;2023-06-14T14:49:27;25.50;45.80
11136;DHT22;5622;50.840;4.948;2023-06-14T14:52:00;25.50;46.60
11136;DHT22;5622;50.840;4.948;2023-06-14T14:54:34;25.60;45.60
11136;DHT22;5622;50.840;4.948;2023-06-14T14:57:09;25.60;45.50
11136;DHT22;5622;50.840;4.948;2023-06-14T14:59:40;25.60;45.60
11136;DHT22;5622;50.840;4.948;2023-06-14T15:02:08;25.60;46.30
11136;DHT22;5622;50.840;4.948;2023-06-14T15:04:36;25.60;45.80
11136;DHT22;5622;50.840;4.948;2023-06-14T15:07:04;25.60;46.20
11136;DHT22;5622;50.840;4.948;2023-06-14T15:09:36;25.60;46.30
11136;DHT22;5622;50.840;4.948;2023-06-14T15:12:06;25.60;46.30
11136;DHT22;5622;50.840;4.948;2023-06-14T15:14:36;25.70;46.70
11136;DHT22;5622;50.840;4.948;2023-06-14T15:17:04;25.40;45.80
11136;DHT22;5622;50.840;4.948;2023-06-14T15:19:37;25.50;45.70
11136;DHT22;5622;50.840;4.948;2023-06-14T15:22:07;25.50;45.80
11136;DHT22;5622;50.840;4.948;2023-06-14T15:24:35;25.50;46.40
11136;DHT22;5622;50.840;4.948;2023-06-14T15:27:05;25.50;46.60
11136;DHT22;5622;50.840;4.948;2023-06-14T15:29:36;25.50;45.20
11136;DHT22;5622;50.840;4.948;2023-06-14T15:32:06;25.50;45.50
11136;DHT22;5622;50.840;4.948;2023-06-14T15:34:36;25.40;45.70
11136;DHT22;5622;50.840;4.948;2023-06-14T15:37:06;25.50;46.50
11136;DHT22;5622;50.840;4.948;2023-06-14T15:39:37;25.50;46.80
11136;DHT22;5622;50.840;4.948;2023-06-14T15:42:05;25.50;44.20
11136;DHT22;5622;50.840;4.948;2023-06-14T15:44:35;25.50;42.80
11136;DHT22;5622;50.840;4.948;2023-06-14T15:47:07;25.50;43.90
11136;DHT22;5622;50.840;4.948;2023-06-14T15:49:38;25.40;44.30
11136;DHT22;5622;50.840;4.948;2023-06-14T15:52:06;25.40;44.50
11136;DHT22;5622;50.840;4.948;2023-06-14T15:54:38;25.30;44.10
11136;DHT22;5622;50.840;4.948;2023-06-14T15:57:05;25.40;44.00
11136;DHT22;5622;50.840;4.948;2023-06-14T15:59:34;25.30;43.40